createdAt,value
2022-08-17T00:03:05.890Z,78.27
2022-08-17T00:07:07.470Z,78.72
2022-08-17T00:11:12.553Z,79.46
2022-08-17T00:15:15.404Z,79.95
2022-08-17T00:19:23.279Z,80.22
2022-08-17T00:23:25.701Z,80.05
2022-08-17T00:27:27.109Z,80.56
2022-08-17T00:31:28.746Z,80.24
2022-08-17T00:35:30.183Z,80.28
2022-08-17T00:39:31.708Z,80.00
2022-08-17T00:43:46.433Z,80.32
2022-08-17T00:47:49.433Z,80.48
2022-08-17T00:51:57.395Z,80.48
2022-08-17T00:56:01.947Z,80.52
2022-08-17T01:00:12.765Z,80.48
2022-08-17T01:04:16.082Z,80.78
2022-08-17T01:08:22.138Z,80.98
2022-08-17T01:12:23.614Z,81.13
2022-08-17T01:16:28.823Z,80.97
2022-08-17T01:20:30.463Z,80.80
2022-08-17T01:24:52.099Z,80.95
2022-08-17T01:28:55.785Z,81.33
2022-08-17T01:32:57.874Z,81.35
2022-08-17T01:37:00.419Z,81.28
2022-08-17T01:41:06.885Z,81.75
2022-08-17T01:45:14.756Z,81.60
2022-08-17T01:49:16.329Z,81.88
2022-08-17T01:53:34.157Z,82.59
2022-08-17T01:57:36.159Z,83.72
2022-08-17T02:01:38.019Z,83.40
2022-08-17T02:05:40.161Z,82.90
2022-08-17T02:09:42.196Z,82.23
2022-08-17T02:13:45.613Z,81.88
2022-08-17T02:17:47.803Z,81.43
2022-08-17T02:21:56.326Z,80.56
2022-08-17T02:25:59.696Z,80.51
2022-08-17T02:30:01.131Z,79.12
2022-08-17T02:34:04.055Z,79.06
2022-08-17T02:38:06.908Z,79.15
2022-08-17T02:42:08.526Z,81.42
2022-08-17T02:46:09.897Z,83.62
2022-08-17T02:50:15.029Z,84.92
2022-08-17T02:54:41.387Z,85.85
2022-08-17T02:58:38.821Z,86.76
2022-08-17T03:02:42.112Z,86.77
2022-08-17T03:06:43.813Z,87.49
2022-08-17T03:10:46.209Z,87.68
2022-08-17T03:14:47.621Z,87.96
2022-08-17T03:18:49.194Z,88.44
2022-08-17T03:22:55.508Z,89.21
2022-08-17T03:27:04.348Z,90.47
2022-08-17T03:31:06.870Z,91.14
2022-08-17T03:35:10.483Z,91.54
2022-08-17T03:39:14.366Z,91.36
2022-08-17T03:43:16.802Z,91.42
2022-08-17T03:47:37.137Z,91.59
2022-08-17T03:51:57.270Z,91.31
2022-08-17T03:56:18.915Z,91.54
2022-08-17T04:00:20.389Z,91.43
2022-08-17T04:04:27.706Z,91.85
2022-08-17T04:08:30.183Z,92.03
2022-08-17T04:12:43.923Z,92.28
2022-08-17T04:16:45.354Z,91.53
2022-08-17T04:20:46.912Z,91.96
2022-08-17T04:24:48.374Z,91.91
2022-08-17T04:28:50.066Z,91.85
2022-08-17T04:33:06.444Z,92.38
2022-08-17T04:37:08.753Z,93.11
2022-08-17T04:41:30.394Z,93.57
2022-08-17T04:45:32.689Z,93.92
2022-08-17T04:49:35.113Z,93.80
2022-08-17T04:53:38.072Z,93.91
2022-08-17T04:57:44.580Z,93.82
2022-08-17T05:01:49.903Z,93.87
2022-08-17T05:05:51.475Z,93.60
2022-08-17T05:09:52.914Z,93.85
2022-08-17T05:13:55.515Z,94.22
2022-08-17T05:17:57.247Z,94.34
2022-08-17T05:21:58.690Z,94.25
2022-08-17T05:26:00.237Z,94.17
2022-08-17T05:30:03.963Z,92.98
2022-08-17T05:34:05.455Z,93.33
2022-08-17T05:38:08.243Z,93.73
2022-08-17T05:42:09.797Z,94.37
2022-08-17T05:46:17.299Z,93.97
2022-08-17T05:50:27.163Z,93.79
2022-08-17T05:55:00.510Z,93.29
2022-08-17T05:59:18.762Z,92.61
2022-08-17T06:03:35.008Z,92.18
2022-08-17T06:07:49.604Z,91.96
2022-08-17T06:12:00.050Z,92.25
2022-08-17T06:16:33.291Z,91.94
2022-08-17T06:20:45.562Z,91.69
2022-08-17T06:24:57.898Z,91.12
2022-08-17T06:29:08.215Z,90.15
2022-08-17T06:33:26.721Z,90.34
2022-08-17T06:37:34.345Z,90.35
2022-08-17T06:41:53.939Z,90.42
2022-08-17T06:46:08.055Z,88.98
2022-08-17T06:50:27.064Z,88.49
2022-08-17T06:54:37.803Z,88.18
2022-08-17T06:58:41.648Z,89.12
2022-08-17T07:02:56.693Z,88.48
2022-08-17T07:07:37.708Z,87.67
2022-08-17T07:11:50.453Z,87.13
2022-08-17T07:15:57.545Z,87.17
2022-08-17T07:20:06.300Z,85.83
2022-08-17T07:24:33.056Z,85.08
2022-08-17T07:28:35.999Z,85.59
2022-08-17T07:32:45.102Z,84.83
2022-08-17T07:36:46.519Z,85.07
2022-08-17T07:40:57.470Z,85.42
2022-08-17T07:45:18.881Z,84.87
2022-08-17T07:49:31.688Z,85.12
2022-08-17T07:53:33.226Z,84.44
2022-08-17T07:57:36.129Z,83.85
2022-08-17T08:01:41.908Z,83.79
2022-08-17T08:05:53.629Z,82.94
2022-08-17T08:10:27.575Z,80.18
2022-08-17T08:14:38.125Z,76.09
2022-08-17T08:18:55.382Z,76.39
2022-08-17T08:23:10.544Z,73.62
2022-08-17T08:27:27.679Z,72.26
2022-08-17T08:32:06.300Z,73.37
2022-08-17T08:37:14.295Z,69.59
2022-08-17T08:41:07.795Z,67.08
2022-08-17T08:45:21.618Z,64.66
2022-08-17T08:50:06.967Z,63.15
2022-08-17T08:54:34.286Z,61.46
2022-08-17T08:59:05.207Z,63.05
2022-08-17T09:03:52.791Z,63.58
2022-08-17T09:08:04.029Z,63.71
2022-08-17T09:12:17.363Z,61.50
2022-08-17T09:16:30.074Z,59.27
2022-08-17T09:20:46.631Z,58.50
2022-08-17T09:25:07.949Z,58.18
2022-08-17T09:29:14.067Z,56.43
2022-08-17T09:33:22.900Z,55.92
2022-08-17T09:37:35.482Z,54.09
2022-08-17T09:41:48.520Z,53.23
2022-08-17T09:45:54.247Z,51.40
2022-08-17T09:50:03.353Z,51.75
2022-08-17T09:54:36.872Z,52.31
2022-08-17T09:58:59.243Z,54.27
2022-08-17T10:03:20.021Z,53.92
2022-08-17T10:07:46.641Z,53.42
2022-08-17T10:12:17.352Z,52.33
2022-08-17T10:16:41.168Z,49.65
2022-08-17T10:20:49.091Z,48.29
2022-08-17T10:25:23.935Z,47.53
2022-08-17T10:29:47.317Z,48.14
2022-08-17T10:34:18.943Z,46.51
2022-08-17T10:38:29.831Z,47.57
2022-08-17T10:42:37.247Z,45.10
2022-08-17T10:47:07.347Z,45.62
2022-08-17T10:51:10.959Z,47.09
2022-08-17T10:55:18.577Z,45.79
2022-08-17T10:59:38.558Z,44.71
2022-08-17T11:03:57.975Z,44.93
2022-08-17T11:08:37.795Z,43.68
2022-08-17T11:12:51.534Z,41.79
2022-08-17T11:17:51.280Z,41.41
2022-08-17T11:22:12.202Z,40.36
2022-08-17T11:26:32.274Z,42.06
2022-08-17T11:30:48.648Z,42.63
2022-08-17T11:35:05.062Z,38.09
2022-08-17T11:39:15.555Z,38.99
2022-08-17T11:43:30.421Z,37.43
2022-08-17T11:48:26.093Z,38.75
2022-08-17T11:52:40.757Z,38.83
2022-08-17T11:56:49.096Z,38.77
2022-08-17T12:00:56.527Z,36.66
2022-08-17T12:05:01.894Z,35.62
2022-08-17T12:09:18.190Z,35.24
2022-08-17T12:13:21.477Z,34.16
2022-08-17T12:17:41.004Z,35.62
2022-08-17T12:21:59.986Z,35.56
2022-08-17T12:26:23.305Z,34.30
2022-08-17T12:30:25.954Z,35.29
2022-08-17T12:34:38.265Z,34.88
2022-08-17T12:38:39.738Z,34.73
2022-08-17T12:42:41.440Z,35.08
2022-08-17T12:46:59.260Z,33.25
2022-08-17T12:51:04.746Z,34.34
2022-08-17T12:55:21.148Z,33.27
2022-08-17T12:59:30.236Z,33.55
2022-08-17T13:03:40.248Z,33.66
2022-08-17T13:07:42.581Z,33.49
2022-08-17T13:11:55.087Z,32.80
2022-08-17T13:16:17.191Z,33.85
2022-08-17T13:20:18.865Z,33.89
2022-08-17T13:24:29.855Z,33.35
2022-08-17T13:28:47.707Z,33.08
2022-08-17T13:32:49.586Z,33.30
2022-08-17T13:37:13.937Z,33.26
2022-08-17T13:41:36.026Z,33.73
2022-08-17T13:45:43.437Z,35.09
2022-08-17T13:49:48.724Z,35.24
2022-08-17T13:53:54.801Z,34.59
2022-08-17T13:58:06.654Z,34.42
2022-08-17T14:02:11.214Z,32.74
2022-08-17T14:06:12.753Z,31.92
2022-08-17T14:10:25.917Z,32.78
2022-08-17T14:14:27.593Z,32.29
2022-08-17T14:18:53.495Z,31.29
2022-08-17T14:22:53.848Z,33.47
2022-08-17T14:26:56.401Z,33.15
2022-08-17T14:30:57.877Z,33.66
2022-08-17T14:35:00.702Z,32.71
2022-08-17T14:39:02.258Z,31.54
2022-08-17T14:43:03.894Z,31.82
2022-08-17T14:47:07.347Z,31.73
2022-08-17T14:51:09.294Z,31.46
2022-08-17T14:55:13.232Z,30.90
2022-08-17T14:59:16.942Z,30.52
2022-08-17T15:03:18.849Z,31.95
2022-08-17T15:07:20.470Z,31.33
2022-08-17T15:11:27.844Z,32.09
2022-08-17T15:15:29.616Z,33.79
2022-08-17T15:19:31.038Z,32.35
2022-08-17T15:23:32.967Z,31.31
2022-08-17T15:27:34.934Z,32.76
2022-08-17T15:31:36.767Z,32.23
2022-08-17T15:35:38.215Z,31.86
2022-08-17T15:39:39.627Z,32.08
2022-08-17T15:43:42.657Z,31.40
2022-08-17T15:47:44.125Z,31.34
2022-08-17T15:51:45.649Z,31.22
2022-08-17T15:55:47.298Z,31.24
2022-08-17T15:59:55.094Z,31.02
2022-08-17T16:04:06.630Z,31.62
2022-08-17T16:08:11.076Z,30.91
2022-08-17T16:12:16.543Z,31.65
2022-08-17T16:16:18.100Z,31.29
2022-08-17T16:20:21.003Z,31.37
2022-08-17T16:24:22.678Z,31.10
2022-08-17T16:28:29.873Z,31.17
2022-08-17T16:32:38.213Z,31.67
2022-08-17T16:36:39.902Z,32.17
2022-08-17T16:40:42.261Z,32.75
2022-08-17T16:44:43.697Z,33.20
2022-08-17T16:48:46.433Z,34.76
2022-08-17T16:52:48.519Z,35.89
2022-08-17T16:56:50.378Z,35.78
2022-08-17T17:00:51.919Z,35.36
2022-08-17T17:05:02.947Z,35.02
2022-08-17T17:09:11.171Z,35.42
2022-08-17T17:13:44.324Z,35.35
2022-08-17T17:17:48.452Z,35.25
2022-08-17T17:21:53.201Z,36.14
2022-08-17T17:26:13.449Z,36.24
2022-08-17T17:30:20.621Z,35.99
2022-08-17T17:34:22.768Z,37.56
2022-08-17T17:38:29.472Z,39.78
2022-08-17T17:42:32.693Z,39.89
2022-08-17T17:46:40.540Z,40.86
2022-08-17T17:50:50.620Z,40.78
2022-08-17T17:55:13.464Z,43.33
2022-08-17T17:59:21.850Z,43.38
2022-08-17T18:03:46.690Z,43.09
2022-08-17T18:08:09.237Z,44.53
2022-08-17T18:12:12.686Z,45.09
2022-08-17T18:16:14.233Z,44.38
2022-08-17T18:20:23.773Z,46.01
2022-08-17T18:24:55.793Z,46.72
2022-08-17T18:28:57.285Z,46.10
2022-08-17T18:33:23.389Z,47.78
2022-08-17T18:37:45.164Z,48.00
2022-08-17T18:41:48.595Z,48.01
2022-08-17T18:45:53.601Z,48.41
2022-08-17T18:49:59.106Z,50.19
2022-08-17T18:54:15.546Z,50.47
2022-08-17T18:58:24.457Z,50.49
2022-08-17T19:02:43.370Z,50.88
2022-08-17T19:06:46.543Z,51.47
2022-08-17T19:10:58.358Z,52.37
2022-08-17T19:15:00.400Z,53.38
2022-08-17T19:19:09.415Z,53.59
2022-08-17T19:23:25.294Z,54.46
2022-08-17T19:28:15.356Z,54.31
2022-08-17T19:32:33.902Z,54.50
2022-08-17T19:36:51.598Z,55.06
2022-08-17T19:41:07.209Z,55.18
2022-08-17T19:45:29.648Z,56.00
2022-08-17T19:49:49.480Z,55.93
2022-08-17T19:54:05.753Z,56.88
2022-08-17T19:58:17.811Z,56.86
2022-08-17T20:02:31.116Z,57.34
2022-08-17T20:06:37.258Z,58.03
2022-08-17T20:10:45.199Z,58.76
2022-08-17T20:14:58.797Z,57.76
2022-08-17T20:19:12.112Z,58.67
2022-08-17T20:23:30.700Z,59.18
2022-08-17T20:27:47.860Z,59.41
2022-08-17T20:31:54.045Z,59.09
2022-08-17T20:36:17.367Z,58.98
2022-08-17T20:40:26.286Z,57.95
2022-08-17T20:44:33.654Z,59.97
2022-08-17T20:48:41.058Z,60.20
2022-08-17T20:52:51.345Z,60.10
2022-08-17T20:56:57.569Z,59.85
2022-08-17T21:00:59.979Z,60.17
2022-08-17T21:05:07.829Z,60.47
2022-08-17T21:09:12.549Z,60.60
2022-08-17T21:13:15.397Z,61.20
2022-08-17T21:17:33.637Z,61.55
2022-08-17T21:22:05.397Z,62.08
2022-08-17T21:26:18.385Z,62.04
2022-08-17T21:30:28.984Z,62.66
2022-08-17T21:34:38.053Z,63.60
2022-08-17T21:38:57.749Z,63.94
2022-08-17T21:43:17.009Z,64.12
2022-08-17T21:47:25.392Z,63.70
2022-08-17T21:51:29.541Z,64.00
2022-08-17T21:55:33.075Z,63.55
2022-08-17T21:59:39.800Z,63.87
2022-08-17T22:03:47.819Z,64.20
2022-08-17T22:07:58.764Z,64.80
2022-08-17T22:12:06.290Z,64.87
2022-08-17T22:16:27.722Z,64.72
2022-08-17T22:20:31.041Z,65.61
2022-08-17T22:24:32.727Z,66.41
2022-08-17T22:28:49.762Z,65.71
2022-08-17T22:32:51.469Z,65.37
2022-08-17T22:37:28.611Z,66.14
2022-08-17T22:41:32.248Z,67.26
2022-08-17T22:45:44.554Z,67.49
2022-08-17T22:49:53.922Z,67.33
2022-08-17T22:54:21.454Z,67.38
2022-08-17T22:58:42.941Z,67.12
2022-08-17T23:03:09.613Z,67.60
2022-08-17T23:07:11.738Z,67.85
2022-08-17T23:11:14.990Z,68.96
2022-08-17T23:15:19.179Z,68.43
2022-08-17T23:19:21.753Z,68.24
2022-08-17T23:23:23.893Z,68.88
2022-08-17T23:27:29.220Z,69.85
2022-08-17T23:31:34.650Z,69.46
2022-08-17T23:35:40.052Z,69.42
2022-08-17T23:39:44.983Z,69.82
2022-08-17T23:43:49.173Z,70.05
2022-08-17T23:47:50.779Z,69.92
2022-08-17T23:51:55.846Z,69.83
2022-08-17T23:56:09.543Z,69.81
